This is the latest recevied weather packets stored in our database for station/object YC0ACE-13. If no packets are shown the sender has not sent any weather packets the latest 10 day(s).
| Time | Temp. | Humidity | Pressure | Rain* | Wind** | Luminosity | Snow |
|---|---|---|---|---|---|---|---|
| 1777881025 | 29.44° C | 81% | 1013.5 hPa | 1.27 mm | - | 166 W/m² | - |
| 1777880725 | 30° C | 78% | 1013.5 hPa | 1.27 mm | - | 189 W/m² | - |
| 1777880424 | 30° C | 77% | 1013.5 hPa | 0 mm | - | 283 W/m² | - |
| 1777880125 | 30° C | 76% | 1013.5 hPa | 0 mm | - | 267 W/m² | - |
| 1777879824 | 30° C | 77% | 1013.5 hPa | 0 mm | - | 215 W/m² | - |
| 1777879524 | 30° C | 77% | 1013.5 hPa | 0 mm | - | 210 W/m² | - |
| 1777879225 | 30° C | 78% | 1013.5 hPa | 0 mm | - | 176 W/m² | - |
| 1777878924 | 30° C | 79% | 1013.5 hPa | 0 mm | - | 199 W/m² | - |
| 1777878625 | 30° C | 78% | 1013.5 hPa | 0 mm | - | 135 W/m² | - |
| 1777878325 | 30.56° C | 76% | 1013.5 hPa | 0 mm | - | 142 W/m² | - |
| 1777878024 | 30.56° C | 75% | 1013.5 hPa | 0 mm | - | 140 W/m² | - |
| 1777877425 | 30.56° C | 73% | 1013.5 hPa | 0 mm | - | 265 W/m² | - |
| 1777877125 | 30.56° C | 72% | 1013.5 hPa | 0 mm | - | 418 W/m² | - |
| 1777876824 | 30° C | 72% | 1013.5 hPa | 0 mm | - | 570 W/m² | - |
| 1777876525 | 29.44° C | 73% | 1013.9 hPa | 0 mm | - | 540 W/m² | - |
| 1777876225 | 28.89° C | 74% | 1014.2 hPa | 0 mm | - | 456 W/m² | - |
| 1777875924 | 28.89° C | 76% | 1014.2 hPa | 0 mm | - | 273 W/m² | - |
| 1777875625 | 28.33° C | 79% | 1014.2 hPa | 0 mm | - | 255 W/m² | - |
| 1777875324 | 27.78° C | 81% | 1014.2 hPa | 0 mm | - | 233 W/m² | - |
| 1777875024 | 27.78° C | 81% | 1013.9 hPa | 0 mm | - | 208 W/m² | - |
| 1777874726 | 27.78° C | 81% | 1014.2 hPa | 0 mm | - | 157 W/m² | - |
| 1777874425 | 27.22° C | 82% | 1014.6 hPa | 0 mm | - | 146 W/m² | - |
| 1777874125 | 27.22° C | 82% | 1014.9 hPa | 0 mm | - | 170 W/m² | - |
| 1777873824 | 27.22° C | 82% | 1014.6 hPa | 0 mm | - | 162 W/m² | - |
| 1777873525 | 27.22° C | 82% | 1014.6 hPa | 0 mm | - | 168 W/m² | - |
* Rain latest hour (hover to see other rain measurements)
** Current wind speed in m/s (hover to see current wind gust speed)